createdAt,value
2023-01-17T00:01:55.056Z,0.52
2023-01-17T00:04:40.167Z,0.95
2023-01-17T00:07:25.317Z,0.60
2023-01-17T00:09:54.376Z,0.90
2023-01-17T00:12:21.201Z,1.27
2023-01-17T00:14:47.920Z,0.22
2023-01-17T00:17:14.413Z,0.25
2023-01-17T00:19:59.563Z,0.35
2023-01-17T00:22:49.080Z,1.20
2023-01-17T00:25:35.416Z,0.30
2023-01-17T00:28:02.034Z,0.35
2023-01-17T00:30:28.592Z,0.10
2023-01-17T00:32:55.148Z,0.25
2023-01-17T00:35:24.911Z,0.17
2023-01-17T00:38:20.496Z,0.13
2023-01-17T00:40:47.070Z,0.30
2023-01-17T00:43:33.273Z,0.85
2023-01-17T00:46:18.006Z,0.10
2023-01-17T00:49:03.343Z,0.10
2023-01-17T01:05:34.888Z,1.75
2023-01-17T01:08:20.194Z,0.60
2023-01-17T01:11:06.687Z,0.85
2023-01-17T01:13:51.705Z,0.30
2023-01-17T01:16:37.654Z,0.30
2023-01-17T01:19:23.931Z,0.20
2023-01-17T01:22:08.974Z,0.30
2023-01-17T01:24:53.806Z,0.47
2023-01-17T01:27:38.664Z,0.17
2023-01-17T01:30:23.732Z,0.20
2023-01-17T01:33:08.551Z,0.47
2023-01-17T01:35:36.404Z,0.40
2023-01-17T01:38:03.403Z,0.38
2023-01-17T01:40:30.057Z,0.40
2023-01-17T01:42:57.687Z,0.52
2023-01-17T01:45:25.812Z,0.68
2023-01-17T01:47:55.223Z,0.30
2023-01-17T01:50:22.112Z,0.20
2023-01-17T01:52:52.315Z,0.30
2023-01-17T01:55:18.877Z,0.47
2023-01-17T01:57:47.334Z,0.38
2023-01-17T02:00:16.531Z,0.50
2023-01-17T02:02:45.033Z,1.52
2023-01-17T02:05:13.163Z,0.60
2023-01-17T02:07:43.779Z,0.73
2023-01-17T02:10:10.693Z,1.05
2023-01-17T02:12:37.386Z,0.50
2023-01-17T02:15:05.704Z,0.30
2023-01-17T02:17:35.459Z,0.57
2023-01-17T02:20:20.405Z,2.90
2023-01-17T02:22:58.833Z,0.30
2023-01-17T02:25:31.282Z,1.48
2023-01-17T02:28:16.437Z,0.40
2023-01-17T02:30:46.113Z,0.82
2023-01-17T02:33:19.526Z,0.43
2023-01-17T02:35:45.873Z,0.90
2023-01-17T02:38:12.384Z,0.70
2023-01-17T02:40:44.806Z,0.68
2023-01-17T02:43:14.178Z,0.50
2023-01-17T02:45:40.654Z,0.85
2023-01-17T02:48:08.306Z,0.82
2023-01-17T02:50:42.583Z,0.70
2023-01-17T02:53:09.010Z,0.80
2023-01-17T02:55:38.500Z,0.38
2023-01-17T02:58:31.244Z,0.77
2023-01-17T03:01:10.197Z,1.85
2023-01-17T03:03:55.351Z,1.42
2023-01-17T03:06:25.489Z,0.93
2023-01-17T03:08:52.440Z,1.13
2023-01-17T03:11:19.190Z,0.85
2023-01-17T03:13:45.614Z,2.38
2023-01-17T03:16:14.939Z,3.08
2023-01-17T03:18:42.010Z,2.10
2023-01-17T03:21:08.430Z,2.25
2023-01-17T03:23:34.787Z,1.48
2023-01-17T03:26:01.341Z,4.15
2023-01-17T03:28:28.923Z,1.08
2023-01-17T03:30:55.372Z,3.05
2023-01-17T03:33:22.119Z,3.35
2023-01-17T03:35:48.467Z,0.85
2023-01-17T03:38:15.239Z,3.22
2023-01-17T03:40:41.935Z,1.25
2023-01-17T03:43:08.465Z,3.15
2023-01-17T03:45:35.157Z,2.97
2023-01-17T03:48:01.791Z,2.67
2023-01-17T03:50:28.222Z,3.20
2023-01-17T03:52:54.658Z,2.28
2023-01-17T03:55:21.082Z,2.65
2023-01-17T03:57:47.456Z,2.05
2023-01-17T04:00:14.146Z,3.38
2023-01-17T04:02:40.718Z,4.32
2023-01-17T04:05:07.316Z,1.85
2023-01-17T04:07:33.835Z,2.42
2023-01-17T04:10:00.490Z,3.40
2023-01-17T04:12:27.184Z,3.25
2023-01-17T04:14:53.716Z,1.85
2023-01-17T04:17:20.471Z,3.15
2023-01-17T04:19:47.198Z,1.20
2023-01-17T04:22:18.567Z,2.25
2023-01-17T04:24:45.521Z,2.38
2023-01-17T04:27:15.006Z,1.90
2023-01-17T04:29:41.495Z,1.83
2023-01-17T04:32:08.408Z,1.88
2023-01-17T04:34:35.067Z,2.15
2023-01-17T04:37:01.600Z,1.70
2023-01-17T04:39:28.061Z,1.63
2023-01-17T04:41:54.901Z,2.15
2023-01-17T04:44:21.262Z,2.13
2023-01-17T04:46:47.855Z,3.35
2023-01-17T04:49:14.310Z,2.50
2023-01-17T04:51:40.738Z,1.45
2023-01-17T04:54:07.339Z,2.78
2023-01-17T04:56:33.793Z,3.33
2023-01-17T04:59:00.244Z,2.83
2023-01-17T05:01:27.099Z,3.63
2023-01-17T05:03:56.552Z,3.65
2023-01-17T05:06:24.202Z,1.75
2023-01-17T05:08:50.626Z,3.95
2023-01-17T05:11:17.990Z,2.00
2023-01-17T05:13:44.386Z,2.35
2023-01-17T05:16:10.814Z,6.03
2023-01-17T05:18:37.691Z,3.03
2023-01-17T05:21:04.200Z,3.08
2023-01-17T05:23:30.699Z,5.47
2023-01-17T05:25:57.133Z,4.15
2023-01-17T05:28:23.563Z,5.47
2023-01-17T05:30:50.065Z,3.40
2023-01-17T05:33:16.496Z,1.95
2023-01-17T05:35:42.916Z,1.77
2023-01-17T05:38:09.308Z,4.53
2023-01-17T05:40:35.785Z,3.88
2023-01-17T05:43:03.845Z,2.95
2023-01-17T05:45:30.738Z,3.20
2023-01-17T05:47:58.291Z,2.53
2023-01-17T05:50:27.707Z,4.00
2023-01-17T05:52:55.662Z,4.32
2023-01-17T05:55:22.733Z,2.25
2023-01-17T05:57:49.700Z,2.80
2023-01-17T06:00:17.039Z,2.85
2023-01-17T06:02:43.928Z,4.00
2023-01-17T06:05:10.472Z,2.33
2023-01-17T06:07:36.987Z,2.03
2023-01-17T06:10:03.739Z,2.35
2023-01-17T06:12:30.173Z,4.63
2023-01-17T06:14:56.628Z,2.33
2023-01-17T06:17:23.185Z,3.13
2023-01-17T06:19:49.675Z,4.95
2023-01-17T06:22:16.245Z,1.92
2023-01-17T06:24:43.888Z,5.82
2023-01-17T06:27:10.721Z,3.25
2023-01-17T06:29:37.115Z,2.80
2023-01-17T06:32:03.625Z,2.88
2023-01-17T06:34:30.075Z,3.95
2023-01-17T06:36:56.851Z,4.97
2023-01-17T06:39:23.291Z,2.80
2023-01-17T06:41:49.682Z,2.28
2023-01-17T06:44:16.178Z,2.10
2023-01-17T06:46:43.403Z,6.53
2023-01-17T06:49:09.847Z,4.97
2023-01-17T06:51:36.273Z,4.00
2023-01-17T06:54:02.640Z,4.32
2023-01-17T06:56:30.996Z,8.60
2023-01-17T06:58:57.557Z,5.55
2023-01-17T07:01:23.995Z,3.95
2023-01-17T07:03:52.428Z,2.70
2023-01-17T07:06:19.073Z,1.90
2023-01-17T07:08:45.481Z,5.95
2023-01-17T07:11:11.858Z,2.60
2023-01-17T07:13:38.393Z,2.53
2023-01-17T07:16:05.384Z,2.80
2023-01-17T07:18:32.501Z,4.15
2023-01-17T07:20:58.849Z,3.80
2023-01-17T07:23:25.237Z,6.25
2023-01-17T07:25:52.555Z,2.20
2023-01-17T07:28:19.062Z,5.45
2023-01-17T07:30:45.601Z,3.83
2023-01-17T07:33:12.036Z,3.53
2023-01-17T07:35:38.469Z,4.65
2023-01-17T07:38:13.894Z,4.22
2023-01-17T07:43:15.217Z,4.05
2023-01-17T07:45:45.741Z,3.88
2023-01-17T07:48:12.223Z,3.97
2023-01-17T07:50:38.909Z,1.98
2023-01-17T07:53:05.443Z,3.63
2023-01-17T07:55:31.937Z,3.72
2023-01-17T07:57:58.317Z,3.70
2023-01-17T08:00:27.574Z,3.45
2023-01-17T08:02:57.912Z,5.30
2023-01-17T08:05:24.488Z,3.65
2023-01-17T08:07:51.354Z,3.00
2023-01-17T08:10:18.169Z,5.68
2023-01-17T08:12:48.550Z,4.47
2023-01-17T08:15:15.560Z,3.35
2023-01-17T08:17:48.504Z,3.05
2023-01-17T08:20:18.785Z,2.40
2023-01-17T08:22:45.322Z,6.22
2023-01-17T08:25:12.575Z,2.95
2023-01-17T08:27:39.139Z,2.33
2023-01-17T08:30:06.702Z,4.25
2023-01-17T08:32:33.436Z,4.78
2023-01-17T08:34:59.837Z,4.25
2023-01-17T08:37:26.274Z,2.05
2023-01-17T08:39:52.673Z,2.65
2023-01-17T08:42:19.070Z,2.53
2023-01-17T08:44:45.467Z,1.92
2023-01-17T08:47:11.850Z,4.50
2023-01-17T08:49:38.378Z,4.97
2023-01-17T08:52:05.380Z,3.60
2023-01-17T08:54:31.801Z,2.60
2023-01-17T08:56:58.250Z,3.38
2023-01-17T08:59:24.640Z,6.43
2023-01-17T09:01:52.475Z,3.47
2023-01-17T09:04:19.302Z,4.57
2023-01-17T09:06:47.318Z,1.48
2023-01-17T09:09:13.844Z,3.72
2023-01-17T09:11:40.294Z,2.17
2023-01-17T09:14:06.664Z,3.92
2023-01-17T09:16:33.178Z,3.30
2023-01-17T09:19:00.041Z,4.47
2023-01-17T09:21:26.656Z,1.50
2023-01-17T09:23:53.431Z,2.33
2023-01-17T09:26:24.246Z,2.58
2023-01-17T09:28:51.087Z,2.72
2023-01-17T09:31:18.085Z,3.47
2023-01-17T09:33:44.572Z,3.05
2023-01-17T09:36:11.573Z,1.88
2023-01-17T09:38:38.018Z,2.00
2023-01-17T09:41:17.800Z,1.77
2023-01-17T09:43:52.896Z,2.95
2023-01-17T09:46:24.197Z,1.85
2023-01-17T09:48:55.266Z,2.65
2023-01-17T09:51:23.130Z,2.40
2023-01-17T09:53:50.305Z,3.40
2023-01-17T09:56:23.226Z,3.13
2023-01-17T09:58:58.044Z,2.22
2023-01-17T10:01:29.811Z,2.90
2023-01-17T10:04:15.469Z,2.67
2023-01-17T10:06:44.641Z,4.82
2023-01-17T10:09:20.262Z,1.98
2023-01-17T10:12:05.316Z,9.43
2023-01-17T10:14:34.384Z,2.17
2023-01-17T10:17:06.969Z,1.77
2023-01-17T10:19:39.979Z,2.20
2023-01-17T10:22:18.356Z,1.20
2023-01-17T10:24:51.970Z,2.75
2023-01-17T10:27:38.627Z,2.05
2023-01-17T10:30:17.304Z,2.28
2023-01-17T10:32:47.412Z,1.48
2023-01-17T10:35:21.708Z,2.35
2023-01-17T10:37:49.059Z,3.25
2023-01-17T10:40:35.777Z,2.65
2023-01-17T10:43:12.109Z,3.35
2023-01-17T10:45:45.092Z,5.43
2023-01-17T10:48:14.917Z,2.20
2023-01-17T10:50:47.915Z,1.13
2023-01-17T10:53:31.105Z,4.30
2023-01-17T10:55:58.033Z,2.88
2023-01-17T10:58:26.407Z,2.33
2023-01-17T11:00:58.145Z,2.15
2023-01-17T11:03:25.540Z,3.45
2023-01-17T11:06:14.939Z,1.75
2023-01-17T11:09:10.700Z,3.45
2023-01-17T11:11:44.391Z,3.30
2023-01-17T11:14:22.207Z,3.22
2023-01-17T11:16:59.667Z,1.95
2023-01-17T11:19:31.447Z,4.03
2023-01-17T11:22:01.594Z,1.90
2023-01-17T11:24:39.945Z,4.88
2023-01-17T11:27:07.442Z,1.63
2023-01-17T11:29:36.911Z,4.75
2023-01-17T11:32:32.620Z,2.70
2023-01-17T11:35:04.824Z,2.30
2023-01-17T11:37:31.238Z,3.40
2023-01-17T11:40:18.807Z,2.55
2023-01-17T11:42:45.221Z,4.53
2023-01-17T11:45:24.993Z,2.67
2023-01-17T11:48:12.892Z,2.95
2023-01-17T11:50:59.564Z,1.80
2023-01-17T11:53:28.006Z,6.47
2023-01-17T11:56:13.270Z,4.63
2023-01-17T11:58:43.195Z,2.08
2023-01-17T12:01:28.590Z,4.03
2023-01-17T12:03:55.004Z,3.42
2023-01-17T12:06:30.446Z,3.22
2023-01-17T12:08:59.965Z,3.60
2023-01-17T12:11:29.277Z,2.63
2023-01-17T12:14:01.782Z,3.88
2023-01-17T12:16:37.924Z,3.05
2023-01-17T12:19:13.537Z,5.22
2023-01-17T12:22:05.343Z,3.45
2023-01-17T12:24:31.740Z,1.40
2023-01-17T12:27:16.804Z,3.03
2023-01-17T12:29:52.229Z,2.60
2023-01-17T12:32:18.610Z,3.00
2023-01-17T12:34:53.510Z,4.25
2023-01-17T12:37:19.960Z,3.58
2023-01-17T12:39:54.928Z,3.30
2023-01-17T12:42:24.254Z,4.60
2023-01-17T12:45:13.782Z,2.05
2023-01-17T12:47:45.388Z,2.42
2023-01-17T12:50:34.124Z,2.30
2023-01-17T12:53:26.704Z,3.45
2023-01-17T12:56:07.145Z,3.85
2023-01-17T12:58:41.238Z,1.75
2023-01-17T13:01:14.414Z,1.98
2023-01-17T13:03:57.720Z,2.40
2023-01-17T13:11:41.130Z,2.47
2023-01-17T13:14:10.685Z,1.70
2023-01-17T13:16:42.922Z,2.67
2023-01-17T13:19:15.862Z,2.00
2023-01-17T13:21:42.615Z,3.67
2023-01-17T13:24:25.948Z,3.17
2023-01-17T13:26:55.618Z,2.28
2023-01-17T13:29:37.564Z,4.30
2023-01-17T13:32:09.785Z,3.45
2023-01-17T13:34:43.643Z,2.35
2023-01-17T13:37:16.619Z,3.45
2023-01-17T13:39:46.152Z,3.10
2023-01-17T13:42:30.801Z,1.55
2023-01-17T13:44:58.101Z,1.77
2023-01-17T13:47:27.585Z,1.33
2023-01-17T13:49:57.576Z,2.20
2023-01-17T13:52:23.951Z,2.80
2023-01-17T13:54:51.440Z,3.85
2023-01-17T13:57:29.561Z,2.10
2023-01-17T13:59:57.415Z,1.85
2023-01-17T14:02:32.704Z,1.67
2023-01-17T14:05:08.146Z,3.53
2023-01-17T14:10:01.197Z,2.92
2023-01-17T14:12:31.423Z,3.05
2023-01-17T14:15:00.698Z,5.18
2023-01-17T14:17:37.268Z,2.25
2023-01-17T14:20:09.424Z,4.57
2023-01-17T14:22:37.733Z,4.05
2023-01-17T14:25:17.524Z,2.40
2023-01-17T14:27:51.801Z,1.50
2023-01-17T14:30:24.136Z,2.67
2023-01-17T14:33:00.917Z,3.78
2023-01-17T14:35:31.798Z,3.97
2023-01-17T14:37:59.761Z,3.05
2023-01-17T14:40:30.502Z,4.30
2023-01-17T14:43:03.031Z,3.25
2023-01-17T14:45:31.113Z,2.45
2023-01-17T14:47:58.775Z,1.40
2023-01-17T14:50:27.255Z,3.55
2023-01-17T14:53:12.001Z,1.83
2023-01-17T14:55:48.652Z,2.78
2023-01-17T14:58:16.333Z,3.80
2023-01-17T15:00:42.717Z,4.88
2023-01-17T15:03:11.233Z,2.08
2023-01-17T15:05:40.160Z,3.00
2023-01-17T15:08:10.517Z,7.32
2023-01-17T15:10:43.675Z,1.83
2023-01-17T15:13:10.703Z,3.47
2023-01-17T15:15:39.637Z,5.85
2023-01-17T15:18:09.742Z,4.43
2023-01-17T15:20:37.432Z,2.92
2023-01-17T15:23:03.985Z,3.05
2023-01-17T15:25:30.684Z,4.15
2023-01-17T15:27:57.213Z,3.42
2023-01-17T15:30:25.263Z,2.53
2023-01-17T15:32:52.571Z,3.65
2023-01-17T15:35:19.399Z,3.65
2023-01-17T15:37:51.166Z,8.45
2023-01-17T15:40:21.677Z,3.58
2023-01-17T15:42:56.732Z,4.65
2023-01-17T15:45:27.040Z,1.90
2023-01-17T15:47:53.454Z,3.17
2023-01-17T15:50:19.831Z,3.72
2023-01-17T15:52:49.969Z,5.00
2023-01-17T15:55:22.462Z,2.97
2023-01-17T15:57:49.313Z,4.53
2023-01-17T16:00:15.906Z,2.90
2023-01-17T16:02:43.410Z,3.15
2023-01-17T16:05:22.365Z,4.50
2023-01-17T16:07:52.991Z,8.30
2023-01-17T16:10:31.699Z,7.03
2023-01-17T16:12:58.602Z,5.63
2023-01-17T16:15:26.483Z,5.75
2023-01-17T16:17:55.465Z,10.55
2023-01-17T16:20:23.146Z,11.80
2023-01-17T16:22:50.196Z,19.42
2023-01-17T16:25:18.002Z,10.52
2023-01-17T16:27:44.402Z,9.25
2023-01-17T16:30:11.820Z,11.40
2023-01-17T16:32:38.193Z,10.55
2023-01-17T16:35:06.379Z,11.45
2023-01-17T16:37:32.877Z,10.25
2023-01-17T16:39:59.196Z,16.58
2023-01-17T16:42:28.397Z,15.93
2023-01-17T16:44:55.028Z,18.85
2023-01-17T16:47:21.877Z,27.90
2023-01-17T16:49:48.214Z,13.85
2023-01-17T16:52:14.609Z,20.58
2023-01-17T16:54:41.041Z,11.50
2023-01-17T16:57:07.489Z,11.00
2023-01-17T16:59:49.656Z,18.77
2023-01-17T17:02:18.628Z,16.92
2023-01-17T17:04:45.101Z,18.98
2023-01-17T17:07:11.529Z,19.75
2023-01-17T17:09:37.991Z,24.35
2023-01-17T17:12:05.089Z,20.38
2023-01-17T17:14:31.467Z,26.23
2023-01-17T17:16:57.912Z,24.95
2023-01-17T17:19:24.280Z,19.13
2023-01-17T17:21:50.667Z,20.77
2023-01-17T17:24:17.456Z,24.13
2023-01-17T17:26:44.621Z,25.60
2023-01-17T17:29:12.170Z,23.85
2023-01-17T17:31:39.904Z,18.92
2023-01-17T17:34:07.342Z,17.00
2023-01-17T17:36:34.419Z,13.65
2023-01-17T17:39:02.145Z,10.45
2023-01-17T17:41:29.903Z,8.23
2023-01-17T17:43:56.700Z,7.30
2023-01-17T17:46:24.351Z,6.90
2023-01-17T17:48:50.961Z,11.07
2023-01-17T17:51:22.316Z,29.27
2023-01-17T17:53:48.761Z,35.05
2023-01-17T17:56:15.257Z,56.80
2023-01-17T17:58:41.965Z,42.90
2023-01-17T18:01:08.441Z,39.58
2023-01-17T18:03:34.918Z,40.55
2023-01-17T18:06:02.251Z,42.30
2023-01-17T18:08:33.521Z,35.33
2023-01-17T18:11:02.305Z,40.05
2023-01-17T18:13:29.652Z,41.53
2023-01-17T18:16:03.915Z,29.30
2023-01-17T18:18:31.292Z,17.80
2023-01-17T18:21:12.942Z,16.23
2023-01-17T18:23:40.042Z,21.60
2023-01-17T18:26:07.167Z,26.83
2023-01-17T18:28:33.631Z,27.60
2023-01-17T18:31:04.399Z,42.72
2023-01-17T18:33:30.805Z,52.88
2023-01-17T18:36:00.001Z,46.35
2023-01-17T18:38:28.794Z,55.78
2023-01-17T18:40:55.124Z,54.47
2023-01-17T18:43:21.512Z,59.40
2023-01-17T18:45:54.118Z,51.83
2023-01-17T18:48:20.471Z,48.90
2023-01-17T18:50:54.746Z,44.80
2023-01-17T18:53:21.106Z,50.67
2023-01-17T18:55:56.982Z,48.65
2023-01-17T18:58:24.060Z,49.92
2023-01-17T19:00:51.434Z,37.60
2023-01-17T19:03:21.389Z,49.63
2023-01-17T19:05:48.359Z,56.80
2023-01-17T19:08:15.685Z,60.13
2023-01-17T19:10:42.432Z,72.03
2023-01-17T19:13:08.979Z,86.03
2023-01-17T19:15:36.215Z,47.88
2023-01-17T19:18:03.382Z,40.40
2023-01-17T19:20:29.987Z,35.00
2023-01-17T19:22:56.409Z,39.38
2023-01-17T19:25:25.443Z,48.47
2023-01-17T19:27:52.683Z,48.80
2023-01-17T19:30:19.818Z,48.30
2023-01-17T19:32:48.666Z,63.55
2023-01-17T19:35:16.069Z,66.50
2023-01-17T19:37:46.487Z,86.28
2023-01-17T19:40:16.793Z,61.70
2023-01-17T19:42:43.238Z,52.72
2023-01-17T19:45:10.815Z,93.03
2023-01-17T19:47:41.469Z,124.78
2023-01-17T19:50:12.154Z,154.07
2023-01-17T19:52:42.462Z,115.45
2023-01-17T19:55:09.872Z,70.20
2023-01-17T19:57:38.683Z,72.05
2023-01-17T20:00:06.420Z,71.35
2023-01-17T20:02:35.894Z,30.92
2023-01-17T20:05:02.441Z,27.13
2023-01-17T20:07:31.048Z,35.08
2023-01-17T20:09:59.066Z,30.85
2023-01-17T20:12:25.510Z,29.95
2023-01-17T20:14:54.148Z,36.65
2023-01-17T20:17:21.151Z,32.80
2023-01-17T20:19:47.648Z,44.55
2023-01-17T20:22:21.739Z,50.10
2023-01-17T20:24:48.237Z,53.80
2023-01-17T20:27:14.563Z,48.83
2023-01-17T20:29:41.033Z,38.75
2023-01-17T20:32:07.862Z,36.53
2023-01-17T20:34:34.224Z,32.60
2023-01-17T20:37:00.635Z,34.13
2023-01-17T20:39:27.167Z,29.35
2023-01-17T20:41:53.526Z,36.00
2023-01-17T20:44:20.023Z,33.33
2023-01-17T20:46:47.800Z,33.67
2023-01-17T20:49:15.974Z,33.78
2023-01-17T20:51:44.136Z,33.00
2023-01-17T20:54:12.960Z,33.22
2023-01-17T20:56:39.371Z,35.65
2023-01-17T20:59:07.639Z,34.38
2023-01-17T21:01:34.991Z,37.67
2023-01-17T21:04:01.775Z,26.95
2023-01-17T21:06:28.156Z,35.13
2023-01-17T21:08:54.797Z,31.88
2023-01-17T21:11:22.963Z,35.75
2023-01-17T21:13:49.829Z,34.13
2023-01-17T21:16:17.901Z,34.92
2023-01-17T21:18:48.018Z,36.70
2023-01-17T21:21:15.481Z,37.25
2023-01-17T21:23:42.258Z,30.60
2023-01-17T21:26:11.966Z,35.17
2023-01-17T21:28:39.533Z,38.60
2023-01-17T21:31:19.500Z,33.42
2023-01-17T21:33:46.500Z,31.48
2023-01-17T21:36:15.048Z,27.05
2023-01-17T21:38:44.648Z,28.35
2023-01-17T21:41:12.044Z,34.30
2023-01-17T21:43:40.915Z,29.88
2023-01-17T21:46:07.500Z,25.20
2023-01-17T21:48:34.154Z,25.77
2023-01-17T21:51:07.230Z,23.75
2023-01-17T21:53:37.371Z,28.25
2023-01-17T21:56:23.152Z,23.40
2023-01-17T21:58:53.760Z,22.45
2023-01-17T22:01:25.019Z,23.20
2023-01-17T22:03:53.099Z,21.42
2023-01-17T22:06:20.482Z,22.13
2023-01-17T22:08:47.197Z,21.05
2023-01-17T22:11:14.831Z,18.83
2023-01-17T22:13:42.438Z,21.05
2023-01-17T22:16:11.340Z,17.88
2023-01-17T22:18:40.187Z,21.42
2023-01-17T22:21:07.723Z,21.58
2023-01-17T22:23:34.422Z,19.77
2023-01-17T22:26:01.400Z,17.98
2023-01-17T22:28:29.146Z,16.65
2023-01-17T22:30:55.621Z,21.38
2023-01-17T22:33:25.371Z,20.75
2023-01-17T22:36:01.005Z,15.85
2023-01-17T22:38:27.409Z,21.70
2023-01-17T22:40:53.778Z,16.02
2023-01-17T22:43:20.185Z,20.63
2023-01-17T22:45:46.833Z,21.90
2023-01-17T22:48:13.276Z,18.23
2023-01-17T22:50:43.057Z,19.00
2023-01-17T22:53:10.414Z,15.40
2023-01-17T22:55:36.831Z,15.23
2023-01-17T22:58:03.200Z,14.50
2023-01-17T23:00:29.802Z,14.55
2023-01-17T23:02:56.572Z,13.23
2023-01-17T23:05:23.131Z,15.77
2023-01-17T23:07:50.194Z,12.88
2023-01-17T23:10:39.712Z,20.15
2023-01-17T23:13:08.784Z,24.83
2023-01-17T23:15:55.900Z,18.35
2023-01-17T23:18:40.752Z,12.85
2023-01-17T23:21:07.752Z,15.87
2023-01-17T23:23:34.175Z,18.50
2023-01-17T23:26:02.038Z,12.45
2023-01-17T23:28:28.461Z,14.05
2023-01-17T23:31:00.282Z,13.93
2023-01-17T23:33:26.767Z,12.23
2023-01-17T23:35:53.331Z,13.10
2023-01-17T23:38:25.856Z,14.13
2023-01-17T23:41:11.587Z,10.30
2023-01-17T23:46:04.833Z,10.00
2023-01-17T23:48:31.564Z,13.00
2023-01-17T23:50:59.217Z,11.00
2023-01-17T23:53:26.126Z,11.43
2023-01-17T23:55:53.415Z,14.35
2023-01-17T23:58:20.567Z,12.32
